Time;durP1;ratioP1;P1;durP2;ratioP2;P2;SDS_P1;SDS_P2;PMS_P1;PMS_P2;Temp;Humidity;BMP_temperature;BMP_pressure;BME280_temperature;BME280_humidity;BME280_pressure;Samples;Min_cycle;Max_cycle;Signal;HPM_P1;HPM_P2
2022/12/22 03:25:51;;;;;;;;;;;;;;;;;;8407207;28;28319;-76
2022/12/22 03:29:51;;;;;;;;;;;;;;;;;;8407959;28;27391;-77
2022/12/22 03:33:52;;;;;;;;;;;;;;;;;;8407470;28;29294;-75
2022/12/22 03:37:52;;;;;;;;;;;;;;;;;;8405869;28;27565;-74
2022/12/22 03:46:29;;;;;;;;;;;;;;;;;;8403715;28;27623;-76
2022/12/22 03:50:29;;;;;;;;;;;;;;;;;;8400037;28;27204;-78
2022/12/22 03:54:29;;;;;;;;;;;;;;;;;;8402557;27;28058;-77
2022/12/22 03:58:29;;;;;;;;;;;;;;;;;;8409314;28;28740;-78
2022/12/22 04:02:29;;;;;;;;;;;;;;;;;;8405387;27;27124;-77
2022/12/22 04:06:29;;;;;;;;;;;;;;;;;;8404262;28;27580;-75
2022/12/22 04:14:48;;;;;;;;;;;;;;;;;;8407474;28;28571;-76
2022/12/22 04:18:48;;;;;;;;;;;;;;;;;;8402750;28;28363;-77
2022/12/22 04:22:49;;;;;;;;;;;;;;;;;;8403453;28;27751;-78
2022/12/22 04:26:49;;;;;;;;;;;;;;;;;;8407274;28;29538;-77
2022/12/22 04:30:49;;;;;;;;;;;;;;;;;;8405102;28;28197;-77
2022/12/22 04:34:49;;;;;;;;;;;;;;;;;;8409656;28;29040;-75
2022/12/22 04:38:49;;;;;;;;;;;;;;;;;;8405000;28;28360;-75
2022/12/22 04:42:50;;;;;;;;;;;;;;;;;;8406213;28;27841;-76
2022/12/22 04:46:50;;;;;;;;;;;;;;;;;;8405745;27;27845;-75
2022/12/22 04:50:50;;;;;;;;;;;;;;;;;;8403747;27;27765;-76
2022/12/22 04:54:50;;;;;;;;;;;;;;;;;;8407012;27;27241;-77
2022/12/22 04:58:50;;;;;;;;;;;;;;;;;;8410484;28;27382;-77
2022/12/22 05:02:50;;;;;;;;;;;;;;;;;;8401970;27;27690;-76
2022/12/22 05:06:50;;;;;;;;;;;;;;;;;;8408994;28;29291;-74
2022/12/22 05:10:50;;;;;;;;;;;;;;;;;;8401221;28;27375;-76
2022/12/22 05:14:50;;;;;;;;;;;;;;;;;;8404723;27;28187;-75
2022/12/22 05:18:50;;;;;;;;;;;;;;;;;;8408211;28;28787;-75
2022/12/22 05:22:50;;;;;;;;;;;;;;;;;;8403972;28;27296;-75
2022/12/22 05:26:50;;;;;;;;;;;;;;;;;;8407472;27;27944;-76
2022/12/22 05:30:50;;;;;;;;;;;;;;;;;;8402173;28;27505;-75
2022/12/22 05:34:51;;;;;;;;;;;;;;;;;;8401025;28;27206;-79
2022/12/22 05:38:51;;;;;;;;;;;;;;;;;;8392631;27;27894;-76
2022/12/22 05:42:51;;;;;;;;;;;;;;;;;;8404923;27;27523;-75
2022/12/22 05:46:51;;;;;;;;;;;;;;;;;;8400154;28;27972;-74
2022/12/22 05:50:51;;;;;;;;;;;;;;;;;;8407113;28;27438;-76
2022/12/22 05:54:51;;;;;;;;;;;;;;;;;;8405818;27;27962;-75
2022/12/22 05:58:51;;;;;;;;;;;;;;;;;;8400575;28;28236;-76
2022/12/22 06:02:51;;;;;;;;;;;;;;;;;;8405525;27;27219;-75
2022/12/22 06:06:51;;;;;;;;;;;;;;;;;;8399999;27;28204;-78
2022/12/22 06:10:51;;;;;;;;;;;;;;;;;;8399629;28;28045;-76
2022/12/22 06:14:51;;;;;;;;;;;;;;;;;;8403757;28;27456;-76
2022/12/22 06:18:52;;;;;;;;;;;;;;;;;;8400792;28;27511;-74
2022/12/22 06:22:52;;;;;;;;;;;;;;;;;;8402568;27;27379;-74
2022/12/22 06:26:52;;;;;;;;;;;;;;;;;;8413202;27;28679;-75
2022/12/22 06:30:52;;;;;;;;;;;;;;;;;;8414648;27;27367;-76
2022/12/22 06:34:52;;;;;;;;;;;;;;;;;;8414222;28;27737;-77
2022/12/22 06:38:52;;;;;;;;;;;;;;;;;;8415388;27;27443;-74
2022/12/22 06:43:07;;;;;;;;;;;;;;;;;;8413904;28;28624;-77
2022/12/22 06:47:07;;;;;;;;;;;;;;;;;;8411290;28;28345;-73
2022/12/22 06:51:07;;;;;;;;;;;;;;;;;;8413629;28;29732;-76
2022/12/22 06:55:07;;;;;;;;;;;;;;;;;;8413055;27;27187;-75
2022/12/22 06:59:08;;;;;;;;;;;;;;;;;;8410369;27;27578;-76
2022/12/22 07:03:08;;;;;;;;;;;;;;;;;;8411414;27;27328;-76
2022/12/22 07:07:08;;;;;;;;;;;;;;;;;;8408180;28;28461;-78
2022/12/22 07:11:08;;;;;;;;;;;;;;;;;;8408889;27;27860;-75
2022/12/22 07:15:08;;;;;;;;;;;;;;;;;;8410142;28;28080;-75
2022/12/22 07:19:08;;;;;;;;;;;;;;;;;;8410514;28;28481;-76
2022/12/22 07:23:08;;;;;;;;;;;;;;;;;;8411245;28;28222;-76
2022/12/22 07:27:08;;;;;;;;;;;;;;;;;;8406122;27;27600;-77
2022/12/22 07:31:08;;;;;;;;;;;;;;;;;;8409553;27;28046;-76
2022/12/22 07:35:08;;;;;;;;;;;;;;;;;;8413769;28;27828;-76
2022/12/22 07:39:08;;;;;;;;;;;;;;;;;;8403627;27;27335;-77
2022/12/22 07:43:08;;;;;;;;;;;;;;;;;;8412652;28;29560;-77
2022/12/22 07:47:09;;;;;;;;;;;;;;;;;;8410947;28;27254;-78
2022/12/22 07:51:09;;;;;;;;;;;;;;;;;;8411873;28;28119;-75
2022/12/22 07:55:09;;;;;;;;;;;;;;;;;;8409394;27;27744;-77
2022/12/22 07:59:09;;;;;;;;;;;;;;;;;;8405087;27;27799;-76
2022/12/22 08:03:09;;;;;;;;;;;;;;;;;;8410401;28;27738;-77
2022/12/22 08:07:09;;;;;;;;;;;;;;;;;;8405913;27;27624;-78
2022/12/22 08:11:09;;;;;;;;;;;;;;;;;;8407257;28;28421;-78
2022/12/22 08:15:09;;;;;;;;;;;;;;;;;;8407669;28;28103;-78
2022/12/22 08:19:09;;;;;;;;;;;;;;;;;;8405221;28;28822;-76
2022/12/22 08:23:09;;;;;;;;;;;;;;;;;;8406593;28;28181;-76
2022/12/22 08:27:09;;;;;;;;;;;;;;;;;;8408886;27;27592;-77
2022/12/22 08:31:10;;;;;;;;;;;;;;;;;;8405129;28;27573;-76
2022/12/22 08:35:10;;;;;;;;;;;;;;;;;;8403863;28;28373;-76
2022/12/22 08:39:10;;;;;;;;;;;;;;;;;;8407589;28;28098;-76
2022/12/22 08:43:10;;;;;;;;;;;;;;;;;;8409783;28;27687;-78
2022/12/22 08:47:10;;;;;;;;;;;;;;;;;;8405351;27;27389;-76
2022/12/22 08:51:10;;;;;;;;;;;;;;;;;;8404213;28;27600;-76
2022/12/22 08:55:10;;;;;;;;;;;;;;;;;;8404035;27;27384;-76
2022/12/22 08:59:10;;;;;;;;;;;;;;;;;;8406281;27;27586;-77
2022/12/22 09:03:10;;;;;;;;;;;;;;;;;;8403493;27;28102;-77
2022/12/22 09:07:10;;;;;;;;;;;;;;;;;;8404708;28;28060;-75
2022/12/22 09:11:11;;;;;;;;;;;;;;;;;;8407807;28;27548;-76
2022/12/22 09:15:11;;;;;;;;;;;;;;;;;;8403667;27;27465;-77
2022/12/22 09:19:11;;;;;;;;;;;;;;;;;;8406435;28;27407;-76
2022/12/22 09:23:11;;;;;;;;;;;;;;;;;;8404037;28;28198;-78
2022/12/22 09:27:11;;;;;;;;;;;;;;;;;;8407357;27;27531;-77
2022/12/22 09:31:11;;;;;;;;;;;;;;;;;;8401562;28;28640;-75
2022/12/22 09:35:13;;;;;;;;;;;;;;;;;;8405191;27;48584;-77
2022/12/22 09:39:14;;;;;;;;;;;;;;;;;;8404343;28;28510;-77
2022/12/22 09:43:14;;;;;;;;;;;;;;;;;;8406538;27;27451;-76
2022/12/22 09:47:14;;;;;;;;;;;;;;;;;;8401031;27;27501;-76
2022/12/22 09:51:16;;;;;;;;;;;;;;;;;;8407624;28;28281;-76
2022/12/22 09:55:16;;;;;;;;;;;;;;;;;;8405083;27;27436;-77
2022/12/22 09:59:16;;;;;;;;;;;;;;;;;;8404992;28;28598;-77
2022/12/22 10:03:16;;;;;;;;;;;;;;;;;;8402822;28;27466;-77
2022/12/22 10:07:16;;;;;;;;;;;;;;;;;;8403874;27;27291;-76
2022/12/22 10:11:16;;;;;;;;;;;;;;;;;;8407719;28;27369;-77
2022/12/22 10:15:16;;;;;;;;;;;;;;;;;;8404230;28;29554;-77
2022/12/22 10:19:16;;;;;;;;;;;;;;;;;;8399764;27;27501;-76
2022/12/22 10:23:17;;;;;;;;;;;;;;;;;;8402960;28;27997;-74
2022/12/22 10:27:17;;;;;;;;;;;;;;;;;;8400137;27;28222;-77
2022/12/22 10:31:17;;;;;;;;;;;;;;;;;;8407049;27;27389;-78
2022/12/22 10:35:17;;;;;;;;;;;;;;;;;;8405262;28;27373;-79
2022/12/22 10:39:17;;;;;;;;;;;;;;;;;;8400692;27;27628;-78
2022/12/22 10:43:17;;;;;;;;;;;;;;;;;;8404148;27;27509;-79
2022/12/22 10:47:19;;;;;;;;;;;;;;;;;;8404194;27;27242;-77
2022/12/22 10:51:19;;;;;;;;;;;;;;;;;;8403565;27;27583;-77
2022/12/22 10:55:19;;;;;;;;;;;;;;;;;;8404545;28;27125;-76
2022/12/22 10:59:19;;;;;;;;;;;;;;;;;;8400129;28;27836;-76
2022/12/22 11:03:19;;;;;;;;;;;;;;;;;;8405490;28;27476;-76
2022/12/22 11:07:19;;;;;;;;;;;;;;;;;;8405115;28;28754;-78
2022/12/22 11:11:19;;;;;;;;;;;;;;;;;;8402011;27;28070;-77
2022/12/22 11:15:19;;;;;;;;;;;;;;;;;;8405307;28;28059;-77
2022/12/22 11:19:19;;;;;;;;;;;;;;;;;;8410555;28;28243;-76
2022/12/22 11:23:19;;;;;;;;;;;;;;;;;;8411318;28;28549;-77
2022/12/22 11:27:20;;;;;;;;;;;;;;;;;;8407929;27;28612;-78
2022/12/22 11:31:20;;;;;;;;;;;;;;;;;;8404120;27;28340;-77
2022/12/22 11:35:20;;;;;;;;;;;;;;;;;;8405975;27;27536;-76
2022/12/22 11:39:20;;;;;;;;;;;;;;;;;;8411411;27;28038;-78
2022/12/22 11:43:20;;;;;;;;;;;;;;;;;;8411634;28;28691;-78
2022/12/22 11:47:20;;;;;;;;;;;;;;;;;;8406347;28;27580;-77
2022/12/22 11:51:20;;;;;;;;;;;;;;;;;;8402454;28;27772;-75
2022/12/22 11:55:20;;;;;;;;;;;;;;;;;;8409627;27;27185;-77
2022/12/22 11:59:20;;;;;;;;;;;;;;;;;;8408474;28;27313;-77
2022/12/22 12:03:21;;;;;;;;;;;;;;;;;;8403200;28;28029;-78
2022/12/22 12:07:21;;;;;;;;;;;;;;;;;;8408139;28;29109;-77
2022/12/22 12:11:21;;;;;;;;;;;;;;;;;;8406946;27;28024;-77
2022/12/22 12:15:23;;;;;;;;;;;;;;;;;;8406832;28;27849;-77
2022/12/22 12:19:23;;;;;;;;;;;;;;;;;;8406102;27;27313;-77
2022/12/22 12:23:23;;;;;;;;;;;;;;;;;;8406450;27;28532;-77
2022/12/22 12:27:23;;;;;;;;;;;;;;;;;;8410395;28;29684;-77
2022/12/22 12:31:23;;;;;;;;;;;;;;;;;;8412277;28;28516;-77
2022/12/22 12:35:23;;;;;;;;;;;;;;;;;;8408177;28;28332;-78
2022/12/22 12:39:23;;;;;;;;;;;;;;;;;;8408956;28;27853;-77
2022/12/22 12:43:23;;;;;;;;;;;;;;;;;;8408648;27;28078;-77
2022/12/22 12:47:24;;;;;;;;;;;;;;;;;;8410009;27;28348;-79
2022/12/22 12:51:24;;;;;;;;;;;;;;;;;;8405890;28;28896;-77
2022/12/22 12:55:24;;;;;;;;;;;;;;;;;;8405385;27;28231;-77
2022/12/22 12:59:24;;;;;;;;;;;;;;;;;;8406975;28;28172;-76
2022/12/22 13:03:24;;;;;;;;;;;;;;;;;;8407406;27;27380;-77
2022/12/22 13:07:24;;;;;;;;;;;;;;;;;;8408742;28;28808;-77
2022/12/22 13:11:24;;;;;;;;;;;;;;;;;;8405053;28;27425;-79
2022/12/22 13:15:24;;;;;;;;;;;;;;;;;;8400377;28;27719;-75
2022/12/22 13:19:25;;;;;;;;;;;;;;;;;;8408353;27;27652;-77
2022/12/22 13:23:25;;;;;;;;;;;;;;;;;;8405929;28;28381;-76
2022/12/22 13:27:25;;;;;;;;;;;;;;;;;;8402848;28;27749;-76
2022/12/22 13:31:25;;;;;;;;;;;;;;;;;;8407044;28;27284;-78
2022/12/22 13:35:26;;;;;;;;;;;;;;;;;;8405264;28;28146;-78
2022/12/22 13:39:26;;;;;;;;;;;;;;;;;;8405402;28;27703;-76
2022/12/22 13:43:26;;;;;;;;;;;;;;;;;;8403182;27;27916;-77
2022/12/22 13:47:26;;;;;;;;;;;;;;;;;;8406020;28;28276;-77
2022/12/22 13:51:26;;;;;;;;;;;;;;;;;;8406345;27;27841;-77
2022/12/22 13:55:26;;;;;;;;;;;;;;;;;;8403309;27;27611;-76
2022/12/22 13:59:26;;;;;;;;;;;;;;;;;;8404757;28;27597;-75
2022/12/22 14:03:26;;;;;;;;;;;;;;;;;;8403470;27;27701;-77
2022/12/22 14:07:26;;;;;;;;;;;;;;;;;;8404004;28;28841;-79
2022/12/22 14:11:26;;;;;;;;;;;;;;;;;;8405705;27;27506;-77
2022/12/22 14:15:26;;;;;;;;;;;;;;;;;;8400525;28;27293;-77
2022/12/22 14:19:26;;;;;;;;;;;;;;;;;;8402786;28;28206;-76
2022/12/22 14:23:27;;;;;;;;;;;;;;;;;;8400491;27;27364;-77
2022/12/22 14:27:27;;;;;;;;;;;;;;;;;;8401760;28;27802;-76
2022/12/22 14:31:27;;;;;;;;;;;;;;;;;;8404202;28;27646;-76
2022/12/22 14:35:27;;;;;;;;;;;;;;;;;;8403968;27;27985;-79
2022/12/22 14:39:29;;;;;;;;;;;;;;;;;;8402047;27;27835;-75
2022/12/22 14:43:29;;;;;;;;;;;;;;;;;;8402914;28;27680;-75
2022/12/22 14:47:29;;;;;;;;;;;;;;;;;;8405258;27;27445;-76
2022/12/22 14:51:29;;;;;;;;;;;;;;;;;;8407439;27;28699;-79
2022/12/22 14:55:29;;;;;;;;;;;;;;;;;;8411372;28;28458;-77
2022/12/22 14:59:31;;;;;;;;;;;;;;;;;;8405227;27;27477;-74
2022/12/22 15:03:31;;;;;;;;;;;;;;;;;;8406968;28;27489;-76
2022/12/22 15:07:31;;;;;;;;;;;;;;;;;;8408380;27;27926;-77
2022/12/22 15:11:31;;;;;;;;;;;;;;;;;;8407396;28;27905;-76
2022/12/22 15:15:31;;;;;;;;;;;;;;;;;;8357357;28;28297;-77
2022/12/22 15:19:31;;;;;;;;;;;;;;;;;;8320888;28;27967;-79
2022/12/22 15:23:31;;;;;;;;;;;;;;;;;;8360908;28;28525;-75
2022/12/22 15:27:32;;;;;;;;;;;;;;;;;;8368161;28;28693;-77
2022/12/22 15:31:32;;;;;;;;;;;;;;;;;;8344706;28;28654;-78
2022/12/22 15:35:32;;;;;;;;;;;;;;;;;;8379401;28;27617;-78
2022/12/22 15:39:32;;;;;;;;;;;;;;;;;;8407003;28;27512;-76
2022/12/22 15:43:34;;;;;;;;;;;;;;;;;;8408042;28;27554;-76
2022/12/22 15:47:34;;;;;;;;;;;;;;;;;;8409971;28;27672;-76
2022/12/22 15:51:34;;;;;;;;;;;;;;;;;;8407216;28;27791;-76
2022/12/22 15:55:34;;;;;;;;;;;;;;;;;;8409186;28;28791;-77
2022/12/22 15:59:34;;;;;;;;;;;;;;;;;;8403719;28;27299;-77
2022/12/22 16:03:34;;;;;;;;;;;;;;;;;;8407064;28;27382;-77
2022/12/22 16:07:34;;;;;;;;;;;;;;;;;;8407244;27;28084;-78
2022/12/22 16:11:34;;;;;;;;;;;;;;;;;;8405868;28;28979;-78
2022/12/22 16:15:35;;;;;;;;;;;;;;;;;;8407928;28;29002;-77
2022/12/22 16:19:35;;;;;;;;;;;;;;;;;;8402056;28;28812;-78
2022/12/22 16:23:35;;;;;;;;;;;;;;;;;;8404905;28;27741;-77
2022/12/22 16:27:35;;;;;;;;;;;;;;;;;;8411671;27;27982;-76
2022/12/22 16:31:35;;;;;;;;;;;;;;;;;;8410591;27;28124;-76
2022/12/22 16:35:35;;;;;;;;;;;;;;;;;;8409573;28;28501;-77
2022/12/22 16:39:36;;;;;;;;;;;;;;;;;;8230141;27;28846;-78
2022/12/22 16:43:36;;;;;;;;;;;;;;;;;;8229461;28;28736;-78
2022/12/22 16:47:36;;;;;;;;;;;;;;;;;;8285580;27;28574;-78
2022/12/22 16:51:37;;;;;;;;;;;;;;;;;;8262002;28;28782;-77
2022/12/22 16:55:37;;;;;;;;;;;;;;;;;;8256366;28;27962;-78
2022/12/22 16:59:37;;;;;;;;;;;;;;;;;;8344571;28;28537;-76
2022/12/22 17:03:40;;;;;;;;;;;;;;;;;;8237397;28;28465;-77
2022/12/22 17:07:40;;;;;;;;;;;;;;;;;;8402906;28;27334;-77
2022/12/22 17:11:40;;;;;;;;;;;;;;;;;;8403649;27;27163;-76
2022/12/22 17:15:40;;;;;;;;;;;;;;;;;;8400494;27;27446;-77
2022/12/22 17:19:40;;;;;;;;;;;;;;;;;;8404273;28;27704;-76
2022/12/22 17:23:41;;;;;;;;;;;;;;;;;;8404873;28;27355;-77
2022/12/22 17:27:42;;;;;;;;;;;;;;;;;;8404544;28;28714;-77
2022/12/22 17:31:42;;;;;;;;;;;;;;;;;;8405164;28;27937;-79
2022/12/22 17:35:42;;;;;;;;;;;;;;;;;;8403076;27;27353;-77
2022/12/22 17:39:42;;;;;;;;;;;;;;;;;;8404302;27;29562;-76
2022/12/22 17:43:42;;;;;;;;;;;;;;;;;;8402450;28;27382;-78
2022/12/22 17:47:42;;;;;;;;;;;;;;;;;;8399142;27;28095;-77
2022/12/22 17:51:42;;;;;;;;;;;;;;;;;;8405525;28;27510;-78
2022/12/22 17:55:42;;;;;;;;;;;;;;;;;;8402113;27;27993;-76
2022/12/22 17:59:42;;;;;;;;;;;;;;;;;;8404863;28;28024;-77
2022/12/22 18:03:42;;;;;;;;;;;;;;;;;;8400987;28;28559;-75
2022/12/22 18:07:42;;;;;;;;;;;;;;;;;;8402998;27;28328;-77
2022/12/22 18:11:42;;;;;;;;;;;;;;;;;;8401759;28;28178;-76
2022/12/22 18:15:43;;;;;;;;;;;;;;;;;;8402500;28;27722;-77
2022/12/22 18:19:43;;;;;;;;;;;;;;;;;;8400717;27;28085;-77
2022/12/22 18:23:43;;;;;;;;;;;;;;;;;;8408353;27;28535;-79
2022/12/22 18:27:43;;;;;;;;;;;;;;;;;;8408576;28;27131;-77
2022/12/22 18:31:43;;;;;;;;;;;;;;;;;;8403580;27;27315;-77
2022/12/22 18:35:43;;;;;;;;;;;;;;;;;;8404185;27;27848;-76
2022/12/22 18:39:43;;;;;;;;;;;;;;;;;;8407640;28;30178;-76
2022/12/22 18:43:43;;;;;;;;;;;;;;;;;;8409269;27;27459;-75
2022/12/22 18:47:43;;;;;;;;;;;;;;;;;;8411362;27;28048;-76
2022/12/22 18:51:43;;;;;;;;;;;;;;;;;;8409379;27;28107;-76
2022/12/22 18:55:44;;;;;;;;;;;;;;;;;;8407761;27;27661;-76
2022/12/22 18:59:44;;;;;;;;;;;;;;;;;;8407119;28;28665;-76
2022/12/22 19:03:45;;;;;;;;;;;;;;;;;;8403949;28;28200;-79
2022/12/22 19:07:45;;;;;;;;;;;;;;;;;;8412666;27;28016;-77
2022/12/22 19:11:45;;;;;;;;;;;;;;;;;;8401516;27;27465;-77
2022/12/22 19:15:45;;;;;;;;;;;;;;;;;;8406224;28;28546;-76
2022/12/22 19:19:45;;;;;;;;;;;;;;;;;;8409382;28;27782;-76
2022/12/22 19:23:45;;;;;;;;;;;;;;;;;;8409990;28;28090;-74
2022/12/22 19:27:45;;;;;;;;;;;;;;;;;;8406820;27;27656;-74
2022/12/22 19:31:45;;;;;;;;;;;;;;;;;;8403756;27;28074;-75
2022/12/22 19:35:45;;;;;;;;;;;;;;;;;;8408331;27;28531;-76
2022/12/22 19:39:46;;;;;;;;;;;;;;;;;;8402924;28;28305;-75
2022/12/22 19:43:46;;;;;;;;;;;;;;;;;;8402852;28;28476;-74
2022/12/22 19:47:46;;;;;;;;;;;;;;;;;;8402982;28;27257;-77
2022/12/22 19:51:46;;;;;;;;;;;;;;;;;;8409602;28;27684;-75
2022/12/22 19:55:46;;;;;;;;;;;;;;;;;;8407355;28;27199;-78
2022/12/22 19:59:47;;;;;;;;;;;;;;;;;;8408520;28;28070;-79
2022/12/22 20:03:47;;;;;;;;;;;;;;;;;;8405495;27;27346;-78
2022/12/22 20:07:47;;;;;;;;;;;;;;;;;;8407289;27;27205;-79
2022/12/22 20:11:47;;;;;;;;;;;;;;;;;;8403818;28;27500;-75
2022/12/22 20:15:47;;;;;;;;;;;;;;;;;;8402466;28;28731;-76
2022/12/22 20:19:47;;;;;;;;;;;;;;;;;;8410200;27;27965;-75
2022/12/22 20:23:49;;;;;;;;;;;;;;;;;;8403631;27;27952;-77
2022/12/22 20:27:49;;;;;;;;;;;;;;;;;;8405361;28;27762;-76
2022/12/22 20:31:49;;;;;;;;;;;;;;;;;;8406309;28;28781;-77
2022/12/22 20:35:49;;;;;;;;;;;;;;;;;;8403932;28;27405;-76
2022/12/22 20:39:49;;;;;;;;;;;;;;;;;;8404787;27;27830;-79
2022/12/22 20:43:49;;;;;;;;;;;;;;;;;;8407365;28;27243;-76
2022/12/22 20:47:49;;;;;;;;;;;;;;;;;;8406017;28;28410;-76
2022/12/22 20:51:49;;;;;;;;;;;;;;;;;;8404541;27;27138;-77
2022/12/22 20:55:49;;;;;;;;;;;;;;;;;;8399666;27;27509;-75
2022/12/22 20:59:50;;;;;;;;;;;;;;;;;;8408864;27;27613;-77
2022/12/22 21:03:50;;;;;;;;;;;;;;;;;;8400411;28;28540;-76
2022/12/22 21:07:50;;;;;;;;;;;;;;;;;;8402003;28;30273;-77
2022/12/22 21:11:50;;;;;;;;;;;;;;;;;;8404192;27;28971;-76
2022/12/22 21:15:50;;;;;;;;;;;;;;;;;;8401265;28;27742;-75
2022/12/22 21:19:51;;;;;;;;;;;;;;;;;;8409338;28;28871;-77
2022/12/22 21:23:51;;;;;;;;;;;;;;;;;;8409279;28;27290;-76
2022/12/22 21:27:51;;;;;;;;;;;;;;;;;;8402496;28;28886;-78
2022/12/22 21:31:51;;;;;;;;;;;;;;;;;;8405965;27;27796;-77
2022/12/22 21:35:52;;;;;;;;;;;;;;;;;;8400800;28;29490;-76
2022/12/22 21:39:52;;;;;;;;;;;;;;;;;;8405774;27;27283;-78
2022/12/22 21:43:52;;;;;;;;;;;;;;;;;;8408217;28;28549;-77
2022/12/22 21:47:52;;;;;;;;;;;;;;;;;;8403170;28;28409;-77
2022/12/22 21:51:52;;;;;;;;;;;;;;;;;;8399188;28;28955;-77
2022/12/22 21:55:52;;;;;;;;;;;;;;;;;;8403196;28;27913;-77
2022/12/22 21:59:52;;;;;;;;;;;;;;;;;;8400703;27;28315;-76
2022/12/22 22:03:52;;;;;;;;;;;;;;;;;;8403872;27;27685;-77
2022/12/22 22:07:53;;;;;;;;;;;;;;;;;;8402519;28;27618;-78
2022/12/22 22:16:11;;;;;;;;;;;;;;;;;;8396846;28;27809;-77
2022/12/22 22:20:11;;;;;;;;;;;;;;;;;;8399138;28;27431;-77
2022/12/22 22:24:12;;;;;;;;;;;;;;;;;;8399922;28;27677;-76
2022/12/22 22:32:30;;;;;;;;;;;;;;;;;;8391580;27;27732;-77
2022/12/22 22:36:30;;;;;;;;;;;;;;;;;;8395289;27;27492;-77
2022/12/22 22:40:31;;;;;;;;;;;;;;;;;;8390753;28;28667;-77
2022/12/22 22:44:31;;;;;;;;;;;;;;;;;;8389776;28;28545;-77
2022/12/22 22:48:31;;;;;;;;;;;;;;;;;;8395462;28;27995;-75
2022/12/22 22:52:31;;;;;;;;;;;;;;;;;;8398792;28;27900;-78
2022/12/22 22:56:31;;;;;;;;;;;;;;;;;;8398358;27;28913;-76
2022/12/22 23:00:31;;;;;;;;;;;;;;;;;;8395836;28;27693;-77
2022/12/22 23:04:31;;;;;;;;;;;;;;;;;;8398496;28;27315;-75
2022/12/22 23:08:32;;;;;;;;;;;;;;;;;;8398249;27;28413;-78
2022/12/22 23:12:32;;;;;;;;;;;;;;;;;;8398833;28;28727;-77
2022/12/22 23:16:32;;;;;;;;;;;;;;;;;;8400888;28;28222;-76
2022/12/22 23:20:32;;;;;;;;;;;;;;;;;;8401442;28;27778;-78
2022/12/22 23:24:32;;;;;;;;;;;;;;;;;;8403782;28;27925;-78
2022/12/22 23:28:32;;;;;;;;;;;;;;;;;;8405043;28;27561;-77
2022/12/22 23:32:32;;;;;;;;;;;;;;;;;;8407600;28;27518;-79
2022/12/22 23:36:33;;;;;;;;;;;;;;;;;;8403002;28;29070;-78
2022/12/22 23:40:33;;;;;;;;;;;;;;;;;;8403865;28;28266;-76
2022/12/22 23:44:33;;;;;;;;;;;;;;;;;;8404432;28;27961;-77
2022/12/22 23:48:33;;;;;;;;;;;;;;;;;;8405120;28;27900;-76
2022/12/22 23:52:33;;;;;;;;;;;;;;;;;;8405725;28;27700;-76
2022/12/22 23:56:33;;;;;;;;;;;;;;;;;;8403267;28;27896;-77
